sensor_id;sensor_type;location;lat;lon;timestamp;P1;durP1;ratioP1;P2;durP2;ratioP2
7013;SDS011;3547;50.774;12.918;2024-01-16T00:01:59;3.07;;;1.30;;
7013;SDS011;3547;50.774;12.918;2024-01-16T00:04:25;1.97;;;1.13;;
7013;SDS011;3547;50.774;12.918;2024-01-16T00:06:52;2.67;;;1.27;;
7013;SDS011;3547;50.774;12.918;2024-01-16T00:09:18;3.57;;;1.20;;
7013;SDS011;3547;50.774;12.918;2024-01-16T00:11:44;2.13;;;1.10;;
7013;SDS011;3547;50.774;12.918;2024-01-16T00:14:11;2.20;;;1.20;;
7013;SDS011;3547;50.774;12.918;2024-01-16T00:16:43;1.70;;;1.10;;
7013;SDS011;3547;50.774;12.918;2024-01-16T00:19:13;1.60;;;0.83;;
7013;SDS011;3547;50.774;12.918;2024-01-16T00:21:40;1.10;;;0.93;;
7013;SDS011;3547;50.774;12.918;2024-01-16T00:24:16;2.53;;;1.00;;
7013;SDS011;3547;50.774;12.918;2024-01-16T00:26:42;1.63;;;1.00;;
7013;SDS011;3547;50.774;12.918;2024-01-16T00:29:09;2.47;;;1.23;;
7013;SDS011;3547;50.774;12.918;2024-01-16T00:31:38;2.97;;;0.87;;
7013;SDS011;3547;50.774;12.918;2024-01-16T00:37:27;1.03;;;0.93;;
7013;SDS011;3547;50.774;12.918;2024-01-16T00:39:53;2.80;;;1.20;;
7013;SDS011;3547;50.774;12.918;2024-01-16T00:42:19;1.27;;;0.90;;
7013;SDS011;3547;50.774;12.918;2024-01-16T00:44:45;1.77;;;1.03;;
7013;SDS011;3547;50.774;12.918;2024-01-16T00:47:11;4.40;;;0.67;;
7013;SDS011;3547;50.774;12.918;2024-01-16T00:49:37;1.97;;;1.17;;
7013;SDS011;3547;50.774;12.918;2024-01-16T00:52:03;3.33;;;1.03;;
7013;SDS011;3547;50.774;12.918;2024-01-16T00:54:30;2.03;;;1.10;;
7013;SDS011;3547;50.774;12.918;2024-01-16T00:56:56;1.93;;;1.10;;
7013;SDS011;3547;50.774;12.918;2024-01-16T00:59:25;1.43;;;1.33;;
7013;SDS011;3547;50.774;12.918;2024-01-16T01:01:51;5.83;;;1.23;;
7013;SDS011;3547;50.774;12.918;2024-01-16T01:04:18;2.77;;;1.20;;
7013;SDS011;3547;50.774;12.918;2024-01-16T01:06:44;1.00;;;0.90;;
7013;SDS011;3547;50.774;12.918;2024-01-16T01:09:10;1.37;;;1.27;;
7013;SDS011;3547;50.774;12.918;2024-01-16T01:11:40;2.03;;;1.20;;
7013;SDS011;3547;50.774;12.918;2024-01-16T01:14:06;1.43;;;1.03;;
7013;SDS011;3547;50.774;12.918;2024-01-16T01:16:32;1.30;;;1.20;;
7013;SDS011;3547;50.774;12.918;2024-01-16T01:18:58;3.20;;;1.10;;
7013;SDS011;3547;50.774;12.918;2024-01-16T01:21:25;1.20;;;1.10;;
7013;SDS011;3547;50.774;12.918;2024-01-16T01:27:13;0.73;;;0.73;;
7013;SDS011;3547;50.774;12.918;2024-01-16T01:29:39;2.13;;;1.50;;
7013;SDS011;3547;50.774;12.918;2024-01-16T01:32:06;6.37;;;1.30;;
7013;SDS011;3547;50.774;12.918;2024-01-16T01:34:32;1.20;;;0.87;;
7013;SDS011;3547;50.774;12.918;2024-01-16T01:36:58;2.23;;;1.10;;
7013;SDS011;3547;50.774;12.918;2024-01-16T01:39:24;1.03;;;0.93;;
7013;SDS011;3547;50.774;12.918;2024-01-16T01:41:51;2.47;;;1.20;;
7013;SDS011;3547;50.774;12.918;2024-01-16T01:44:17;0.93;;;0.87;;
7013;SDS011;3547;50.774;12.918;2024-01-16T01:46:43;1.00;;;0.83;;
7013;SDS011;3547;50.774;12.918;2024-01-16T01:49:11;3.27;;;1.07;;
7013;SDS011;3547;50.774;12.918;2024-01-16T01:51:39;1.40;;;1.00;;
7013;SDS011;3547;50.774;12.918;2024-01-16T01:54:05;2.47;;;1.20;;
7013;SDS011;3547;50.774;12.918;2024-01-16T01:56:32;2.53;;;1.00;;
7013;SDS011;3547;50.774;12.918;2024-01-16T01:58:58;1.27;;;0.57;;
7013;SDS011;3547;50.774;12.918;2024-01-16T02:01:25;1.40;;;0.83;;
7013;SDS011;3547;50.774;12.918;2024-01-16T02:03:52;2.07;;;1.10;;
7013;SDS011;3547;50.774;12.918;2024-01-16T02:06:22;0.80;;;0.80;;
7013;SDS011;3547;50.774;12.918;2024-01-16T02:08:48;2.33;;;1.03;;
7013;SDS011;3547;50.774;12.918;2024-01-16T02:11:15;1.40;;;0.90;;
7013;SDS011;3547;50.774;12.918;2024-01-16T02:17:03;2.67;;;1.10;;
7013;SDS011;3547;50.774;12.918;2024-01-16T02:19:30;1.90;;;1.17;;
7013;SDS011;3547;50.774;12.918;2024-01-16T02:21:59;4.23;;;1.27;;
7013;SDS011;3547;50.774;12.918;2024-01-16T02:24:26;1.07;;;0.70;;
7013;SDS011;3547;50.774;12.918;2024-01-16T02:30:15;0.73;;;0.70;;
7013;SDS011;3547;50.774;12.918;2024-01-16T02:36:03;0.60;;;0.60;;
7013;SDS011;3547;50.774;12.918;2024-01-16T02:38:30;0.90;;;0.73;;
7013;SDS011;3547;50.774;12.918;2024-01-16T02:40:56;1.73;;;0.60;;
7013;SDS011;3547;50.774;12.918;2024-01-16T02:43:22;0.67;;;0.67;;
7013;SDS011;3547;50.774;12.918;2024-01-16T02:45:49;0.50;;;0.50;;
7013;SDS011;3547;50.774;12.918;2024-01-16T02:48:15;1.00;;;0.90;;
7013;SDS011;3547;50.774;12.918;2024-01-16T02:50:41;2.57;;;0.80;;
7013;SDS011;3547;50.774;12.918;2024-01-16T02:53:07;4.33;;;0.83;;
7013;SDS011;3547;50.774;12.918;2024-01-16T02:55:33;2.07;;;0.77;;
7013;SDS011;3547;50.774;12.918;2024-01-16T02:57:59;1.27;;;0.80;;
7013;SDS011;3547;50.774;12.918;2024-01-16T03:00:25;2.60;;;1.10;;
7013;SDS011;3547;50.774;12.918;2024-01-16T03:02:52;1.23;;;0.57;;
7013;SDS011;3547;50.774;12.918;2024-01-16T03:05:18;0.80;;;0.80;;
7013;SDS011;3547;50.774;12.918;2024-01-16T03:07:44;1.50;;;0.80;;
7013;SDS011;3547;50.774;12.918;2024-01-16T03:10:10;1.77;;;0.77;;
7013;SDS011;3547;50.774;12.918;2024-01-16T03:12:36;2.30;;;0.73;;
7013;SDS011;3547;50.774;12.918;2024-01-16T03:15:03;2.03;;;0.73;;
7013;SDS011;3547;50.774;12.918;2024-01-16T03:17:30;1.47;;;1.13;;
7013;SDS011;3547;50.774;12.918;2024-01-16T03:19:56;0.97;;;0.90;;
7013;SDS011;3547;50.774;12.918;2024-01-16T03:22:23;2.33;;;0.80;;
7013;SDS011;3547;50.774;12.918;2024-01-16T03:24:49;0.87;;;0.87;;
7013;SDS011;3547;50.774;12.918;2024-01-16T03:27:16;1.13;;;1.03;;
7013;SDS011;3547;50.774;12.918;2024-01-16T03:29:42;2.50;;;1.20;;
7013;SDS011;3547;50.774;12.918;2024-01-16T03:32:08;3.87;;;1.10;;
7013;SDS011;3547;50.774;12.918;2024-01-16T03:34:34;3.23;;;0.90;;
7013;SDS011;3547;50.774;12.918;2024-01-16T03:37:00;1.00;;;0.90;;
7013;SDS011;3547;50.774;12.918;2024-01-16T03:39:26;1.43;;;1.00;;
7013;SDS011;3547;50.774;12.918;2024-01-16T03:41:53;2.40;;;0.90;;
7013;SDS011;3547;50.774;12.918;2024-01-16T03:44:19;1.00;;;0.90;;
7013;SDS011;3547;50.774;12.918;2024-01-16T03:46:45;1.60;;;1.10;;
7013;SDS011;3547;50.774;12.918;2024-01-16T03:49:11;1.13;;;1.00;;
7013;SDS011;3547;50.774;12.918;2024-01-16T03:51:37;2.20;;;1.03;;
7013;SDS011;3547;50.774;12.918;2024-01-16T03:54:04;1.20;;;1.10;;
7013;SDS011;3547;50.774;12.918;2024-01-16T03:56:30;1.07;;;0.90;;
7013;SDS011;3547;50.774;12.918;2024-01-16T03:58:56;0.87;;;0.77;;
7013;SDS011;3547;50.774;12.918;2024-01-16T04:01:32;2.70;;;1.00;;
7013;SDS011;3547;50.774;12.918;2024-01-16T04:03:59;2.23;;;0.97;;
7013;SDS011;3547;50.774;12.918;2024-01-16T04:06:25;1.50;;;0.80;;
7013;SDS011;3547;50.774;12.918;2024-01-16T04:08:51;1.37;;;1.23;;
7013;SDS011;3547;50.774;12.918;2024-01-16T04:11:18;1.03;;;0.93;;
7013;SDS011;3547;50.774;12.918;2024-01-16T04:13:44;3.20;;;1.07;;
7013;SDS011;3547;50.774;12.918;2024-01-16T04:16:11;2.70;;;1.07;;
7013;SDS011;3547;50.774;12.918;2024-01-16T04:18:41;2.50;;;1.00;;
7013;SDS011;3547;50.774;12.918;2024-01-16T04:21:09;1.67;;;0.90;;
7013;SDS011;3547;50.774;12.918;2024-01-16T04:23:35;1.63;;;0.90;;
7013;SDS011;3547;50.774;12.918;2024-01-16T04:26:02;1.00;;;0.80;;
7013;SDS011;3547;50.774;12.918;2024-01-16T04:28:28;1.00;;;0.90;;
7013;SDS011;3547;50.774;12.918;2024-01-16T04:30:54;0.87;;;0.70;;
7013;SDS011;3547;50.774;12.918;2024-01-16T04:33:20;3.40;;;1.07;;
7013;SDS011;3547;50.774;12.918;2024-01-16T04:35:47;3.10;;;1.20;;
7013;SDS011;3547;50.774;12.918;2024-01-16T04:38:13;3.37;;;1.20;;
7013;SDS011;3547;50.774;12.918;2024-01-16T04:40:39;1.77;;;1.10;;
7013;SDS011;3547;50.774;12.918;2024-01-16T04:46:28;2.87;;;0.77;;
7013;SDS011;3547;50.774;12.918;2024-01-16T04:48:54;0.93;;;0.90;;
7013;SDS011;3547;50.774;12.918;2024-01-16T04:51:20;1.33;;;0.97;;
7013;SDS011;3547;50.774;12.918;2024-01-16T04:57:09;1.17;;;1.00;;
7013;SDS011;3547;50.774;12.918;2024-01-16T04:59:35;0.93;;;0.83;;
7013;SDS011;3547;50.774;12.918;2024-01-16T05:02:01;2.30;;;1.37;;
7013;SDS011;3547;50.774;12.918;2024-01-16T05:04:27;2.83;;;1.03;;
7013;SDS011;3547;50.774;12.918;2024-01-16T05:06:53;1.57;;;0.67;;
7013;SDS011;3547;50.774;12.918;2024-01-16T05:09:20;2.60;;;0.70;;
7013;SDS011;3547;50.774;12.918;2024-01-16T05:11:46;2.63;;;0.93;;
7013;SDS011;3547;50.774;12.918;2024-01-16T05:14:12;1.20;;;0.90;;
7013;SDS011;3547;50.774;12.918;2024-01-16T05:16:39;1.77;;;0.80;;
7013;SDS011;3547;50.774;12.918;2024-01-16T05:19:05;3.20;;;1.17;;
7013;SDS011;3547;50.774;12.918;2024-01-16T05:21:31;1.97;;;1.00;;
7013;SDS011;3547;50.774;12.918;2024-01-16T05:23:57;1.77;;;1.20;;
7013;SDS011;3547;50.774;12.918;2024-01-16T05:26:24;1.63;;;1.20;;
7013;SDS011;3547;50.774;12.918;2024-01-16T05:28:50;1.57;;;1.27;;
7013;SDS011;3547;50.774;12.918;2024-01-16T05:31:17;2.47;;;1.10;;
7013;SDS011;3547;50.774;12.918;2024-01-16T05:33:45;1.40;;;1.07;;
7013;SDS011;3547;50.774;12.918;2024-01-16T05:36:11;1.47;;;1.37;;
7013;SDS011;3547;50.774;12.918;2024-01-16T05:38:37;2.60;;;1.67;;
7013;SDS011;3547;50.774;12.918;2024-01-16T05:41:04;2.10;;;1.27;;
7013;SDS011;3547;50.774;12.918;2024-01-16T05:43:30;1.00;;;0.90;;
7013;SDS011;3547;50.774;12.918;2024-01-16T05:45:56;2.47;;;1.43;;
7013;SDS011;3547;50.774;12.918;2024-01-16T05:48:22;3.20;;;1.60;;
7013;SDS011;3547;50.774;12.918;2024-01-16T05:50:48;1.73;;;1.20;;
7013;SDS011;3547;50.774;12.918;2024-01-16T05:53:15;1.60;;;1.30;;
7013;SDS011;3547;50.774;12.918;2024-01-16T05:55:41;3.53;;;1.60;;
7013;SDS011;3547;50.774;12.918;2024-01-16T05:58:07;2.27;;;1.40;;
7013;SDS011;3547;50.774;12.918;2024-01-16T06:00:33;2.17;;;1.43;;
7013;SDS011;3547;50.774;12.918;2024-01-16T06:03:00;3.20;;;1.53;;
7013;SDS011;3547;50.774;12.918;2024-01-16T06:05:26;2.33;;;1.37;;
7013;SDS011;3547;50.774;12.918;2024-01-16T06:07:52;2.10;;;1.57;;
7013;SDS011;3547;50.774;12.918;2024-01-16T06:10:18;2.80;;;1.40;;
7013;SDS011;3547;50.774;12.918;2024-01-16T06:12:44;2.43;;;1.60;;
7013;SDS011;3547;50.774;12.918;2024-01-16T06:15:10;4.73;;;1.50;;
7013;SDS011;3547;50.774;12.918;2024-01-16T06:17:36;4.47;;;1.80;;
7013;SDS011;3547;50.774;12.918;2024-01-16T06:20:03;2.27;;;1.50;;
7013;SDS011;3547;50.774;12.918;2024-01-16T06:22:30;1.60;;;1.30;;
7013;SDS011;3547;50.774;12.918;2024-01-16T06:24:56;1.23;;;0.80;;
7013;SDS011;3547;50.774;12.918;2024-01-16T06:27:22;2.33;;;1.47;;
7013;SDS011;3547;50.774;12.918;2024-01-16T06:29:48;3.37;;;1.37;;
7013;SDS011;3547;50.774;12.918;2024-01-16T06:32:16;2.30;;;1.40;;
7013;SDS011;3547;50.774;12.918;2024-01-16T06:34:42;2.53;;;0.93;;
7013;SDS011;3547;50.774;12.918;2024-01-16T06:37:08;2.50;;;1.13;;
7013;SDS011;3547;50.774;12.918;2024-01-16T06:39:35;4.90;;;1.70;;
7013;SDS011;3547;50.774;12.918;2024-01-16T06:42:01;1.30;;;1.20;;
7013;SDS011;3547;50.774;12.918;2024-01-16T06:44:30;2.80;;;1.43;;
7013;SDS011;3547;50.774;12.918;2024-01-16T06:46:56;2.07;;;1.20;;
7013;SDS011;3547;50.774;12.918;2024-01-16T06:49:22;1.93;;;1.07;;
7013;SDS011;3547;50.774;12.918;2024-01-16T06:51:48;4.13;;;1.30;;
7013;SDS011;3547;50.774;12.918;2024-01-16T06:54:14;2.10;;;1.60;;
7013;SDS011;3547;50.774;12.918;2024-01-16T06:56:40;2.83;;;1.33;;
7013;SDS011;3547;50.774;12.918;2024-01-16T06:59:07;1.90;;;1.10;;
7013;SDS011;3547;50.774;12.918;2024-01-16T07:01:33;1.93;;;1.27;;
7013;SDS011;3547;50.774;12.918;2024-01-16T07:03:59;2.40;;;1.13;;
7013;SDS011;3547;50.774;12.918;2024-01-16T07:06:25;3.90;;;1.67;;
7013;SDS011;3547;50.774;12.918;2024-01-16T07:08:51;2.03;;;1.70;;
7013;SDS011;3547;50.774;12.918;2024-01-16T07:11:17;3.00;;;1.10;;
7013;SDS011;3547;50.774;12.918;2024-01-16T07:13:43;2.57;;;1.43;;
7013;SDS011;3547;50.774;12.918;2024-01-16T07:16:10;2.63;;;1.33;;
7013;SDS011;3547;50.774;12.918;2024-01-16T07:18:37;3.87;;;1.50;;
7013;SDS011;3547;50.774;12.918;2024-01-16T07:21:03;2.20;;;1.50;;
7013;SDS011;3547;50.774;12.918;2024-01-16T07:23:30;1.27;;;1.13;;
7013;SDS011;3547;50.774;12.918;2024-01-16T07:25:56;5.67;;;1.87;;
7013;SDS011;3547;50.774;12.918;2024-01-16T07:28:22;1.60;;;1.13;;
7013;SDS011;3547;50.774;12.918;2024-01-16T07:30:48;4.50;;;1.27;;
7013;SDS011;3547;50.774;12.918;2024-01-16T07:33:14;3.47;;;1.53;;
7013;SDS011;3547;50.774;12.918;2024-01-16T07:35:41;1.30;;;1.20;;
7013;SDS011;3547;50.774;12.918;2024-01-16T07:38:09;1.63;;;1.20;;
7013;SDS011;3547;50.774;12.918;2024-01-16T07:40:35;2.00;;;1.30;;
7013;SDS011;3547;50.774;12.918;2024-01-16T07:43:01;1.97;;;1.10;;
7013;SDS011;3547;50.774;12.918;2024-01-16T07:45:27;1.40;;;1.13;;
7013;SDS011;3547;50.774;12.918;2024-01-16T07:47:54;2.20;;;1.20;;
7013;SDS011;3547;50.774;12.918;2024-01-16T07:50:20;5.40;;;1.30;;
7013;SDS011;3547;50.774;12.918;2024-01-16T07:52:46;2.90;;;1.23;;
7013;SDS011;3547;50.774;12.918;2024-01-16T07:55:12;2.13;;;1.30;;
7013;SDS011;3547;50.774;12.918;2024-01-16T07:57:38;3.47;;;1.53;;
7013;SDS011;3547;50.774;12.918;2024-01-16T08:00:04;3.03;;;1.43;;
7013;SDS011;3547;50.774;12.918;2024-01-16T08:02:31;1.73;;;1.10;;
7013;SDS011;3547;50.774;12.918;2024-01-16T08:04:59;2.20;;;1.30;;
7013;SDS011;3547;50.774;12.918;2024-01-16T08:07:26;3.17;;;1.33;;
7013;SDS011;3547;50.774;12.918;2024-01-16T08:09:52;4.43;;;1.60;;
7013;SDS011;3547;50.774;12.918;2024-01-16T08:12:19;2.13;;;1.50;;
7013;SDS011;3547;50.774;12.918;2024-01-16T08:14:45;1.53;;;1.07;;
7013;SDS011;3547;50.774;12.918;2024-01-16T08:17:11;2.23;;;1.50;;
7013;SDS011;3547;50.774;12.918;2024-01-16T08:19:37;3.20;;;1.43;;
7013;SDS011;3547;50.774;12.918;2024-01-16T08:22:03;2.23;;;1.90;;
7013;SDS011;3547;50.774;12.918;2024-01-16T08:24:31;1.90;;;1.27;;
7013;SDS011;3547;50.774;12.918;2024-01-16T08:26:57;3.43;;;1.60;;
7013;SDS011;3547;50.774;12.918;2024-01-16T08:29:23;2.80;;;1.37;;
7013;SDS011;3547;50.774;12.918;2024-01-16T08:31:50;1.70;;;1.40;;
7013;SDS011;3547;50.774;12.918;2024-01-16T08:34:19;2.33;;;1.67;;
7013;SDS011;3547;50.774;12.918;2024-01-16T08:36:45;1.83;;;1.40;;
7013;SDS011;3547;50.774;12.918;2024-01-16T08:39:11;2.20;;;1.27;;
7013;SDS011;3547;50.774;12.918;2024-01-16T08:41:38;2.23;;;1.50;;
7013;SDS011;3547;50.774;12.918;2024-01-16T08:47:26;1.77;;;1.57;;
7013;SDS011;3547;50.774;12.918;2024-01-16T08:49:53;3.70;;;1.47;;
7013;SDS011;3547;50.774;12.918;2024-01-16T08:52:19;2.87;;;1.77;;
7013;SDS011;3547;50.774;12.918;2024-01-16T08:54:45;1.67;;;1.47;;
7013;SDS011;3547;50.774;12.918;2024-01-16T08:57:11;1.97;;;1.50;;
7013;SDS011;3547;50.774;12.918;2024-01-16T08:59:39;1.30;;;1.20;;
7013;SDS011;3547;50.774;12.918;2024-01-16T09:02:06;5.40;;;1.80;;
7013;SDS011;3547;50.774;12.918;2024-01-16T09:04:32;2.93;;;1.40;;
7013;SDS011;3547;50.774;12.918;2024-01-16T09:06:59;2.83;;;1.47;;
7013;SDS011;3547;50.774;12.918;2024-01-16T09:09:25;2.03;;;1.40;;
7013;SDS011;3547;50.774;12.918;2024-01-16T09:11:51;2.57;;;1.47;;
7013;SDS011;3547;50.774;12.918;2024-01-16T09:14:18;3.17;;;1.33;;
7013;SDS011;3547;50.774;12.918;2024-01-16T09:16:45;1.67;;;1.20;;
7013;SDS011;3547;50.774;12.918;2024-01-16T09:19:11;1.70;;;1.40;;
7013;SDS011;3547;50.774;12.918;2024-01-16T09:21:38;5.70;;;1.57;;
7013;SDS011;3547;50.774;12.918;2024-01-16T09:24:04;3.30;;;1.50;;
7013;SDS011;3547;50.774;12.918;2024-01-16T09:26:30;2.40;;;1.70;;
7013;SDS011;3547;50.774;12.918;2024-01-16T09:28:57;3.57;;;1.70;;
7013;SDS011;3547;50.774;12.918;2024-01-16T09:31:23;4.87;;;1.67;;
7013;SDS011;3547;50.774;12.918;2024-01-16T09:33:50;2.93;;;1.63;;
7013;SDS011;3547;50.774;12.918;2024-01-16T09:36:16;6.30;;;2.17;;
7013;SDS011;3547;50.774;12.918;2024-01-16T09:38:42;3.10;;;1.67;;
7013;SDS011;3547;50.774;12.918;2024-01-16T09:41:09;1.93;;;1.73;;
7013;SDS011;3547;50.774;12.918;2024-01-16T09:43:36;3.23;;;1.63;;
7013;SDS011;3547;50.774;12.918;2024-01-16T09:46:03;2.23;;;1.40;;
7013;SDS011;3547;50.774;12.918;2024-01-16T09:48:31;3.23;;;1.53;;
7013;SDS011;3547;50.774;12.918;2024-01-16T09:50:57;3.87;;;1.37;;
7013;SDS011;3547;50.774;12.918;2024-01-16T09:53:24;1.27;;;1.03;;
7013;SDS011;3547;50.774;12.918;2024-01-16T09:55:50;1.80;;;1.07;;
7013;SDS011;3547;50.774;12.918;2024-01-16T09:58:21;1.97;;;1.47;;
7013;SDS011;3547;50.774;12.918;2024-01-16T10:00:48;1.20;;;1.10;;
7013;SDS011;3547;50.774;12.918;2024-01-16T10:03:16;3.83;;;1.70;;
7013;SDS011;3547;50.774;12.918;2024-01-16T10:05:44;2.17;;;1.50;;
7013;SDS011;3547;50.774;12.918;2024-01-16T10:08:13;2.67;;;1.77;;
7013;SDS011;3547;50.774;12.918;2024-01-16T10:10:39;1.80;;;1.70;;
7013;SDS011;3547;50.774;12.918;2024-01-16T10:13:05;2.23;;;1.37;;
7013;SDS011;3547;50.774;12.918;2024-01-16T10:15:31;1.50;;;1.40;;
7013;SDS011;3547;50.774;12.918;2024-01-16T10:17:59;3.57;;;2.67;;
7013;SDS011;3547;50.774;12.918;2024-01-16T10:20:32;1.90;;;1.57;;
7013;SDS011;3547;50.774;12.918;2024-01-16T10:23:01;5.53;;;2.23;;
7013;SDS011;3547;50.774;12.918;2024-01-16T10:25:29;3.03;;;1.47;;
7013;SDS011;3547;50.774;12.918;2024-01-16T10:28:04;2.13;;;1.77;;
7013;SDS011;3547;50.774;12.918;2024-01-16T10:30:33;3.37;;;1.80;;
7013;SDS011;3547;50.774;12.918;2024-01-16T10:33:12;2.47;;;1.60;;
7013;SDS011;3547;50.774;12.918;2024-01-16T10:35:42;4.00;;;1.70;;
7013;SDS011;3547;50.774;12.918;2024-01-16T10:38:08;2.87;;;1.20;;
7013;SDS011;3547;50.774;12.918;2024-01-16T10:40:34;1.83;;;1.67;;
7013;SDS011;3547;50.774;12.918;2024-01-16T10:43:01;3.20;;;1.70;;
7013;SDS011;3547;50.774;12.918;2024-01-16T10:45:31;1.83;;;1.60;;
7013;SDS011;3547;50.774;12.918;2024-01-16T10:48:05;2.77;;;1.47;;
7013;SDS011;3547;50.774;12.918;2024-01-16T10:50:33;3.23;;;1.87;;
7013;SDS011;3547;50.774;12.918;2024-01-16T10:53:00;2.23;;;1.77;;
7013;SDS011;3547;50.774;12.918;2024-01-16T10:55:29;4.07;;;1.33;;
7013;SDS011;3547;50.774;12.918;2024-01-16T10:57:56;4.93;;;2.07;;
7013;SDS011;3547;50.774;12.918;2024-01-16T11:00:26;2.20;;;1.40;;
7013;SDS011;3547;50.774;12.918;2024-01-16T11:05:25;2.87;;;1.30;;
7013;SDS011;3547;50.774;12.918;2024-01-16T11:07:55;4.10;;;1.63;;
7013;SDS011;3547;50.774;12.918;2024-01-16T11:10:24;3.23;;;1.73;;
7013;SDS011;3547;50.774;12.918;2024-01-16T11:12:51;2.00;;;1.60;;
7013;SDS011;3547;50.774;12.918;2024-01-16T11:15:19;4.30;;;1.70;;
7013;SDS011;3547;50.774;12.918;2024-01-16T11:17:46;5.47;;;1.77;;
7013;SDS011;3547;50.774;12.918;2024-01-16T11:20:13;1.63;;;1.40;;
7013;SDS011;3547;50.774;12.918;2024-01-16T11:22:41;2.97;;;2.23;;
7013;SDS011;3547;50.774;12.918;2024-01-16T11:25:12;2.70;;;1.60;;
7013;SDS011;3547;50.774;12.918;2024-01-16T11:27:41;2.67;;;1.67;;
7013;SDS011;3547;50.774;12.918;2024-01-16T11:30:08;1.67;;;1.47;;
7013;SDS011;3547;50.774;12.918;2024-01-16T11:32:37;3.63;;;1.50;;
7013;SDS011;3547;50.774;12.918;2024-01-16T11:35:06;3.27;;;1.57;;
7013;SDS011;3547;50.774;12.918;2024-01-16T11:37:33;2.40;;;1.27;;
7013;SDS011;3547;50.774;12.918;2024-01-16T11:42:43;2.03;;;1.30;;
7013;SDS011;3547;50.774;12.918;2024-01-16T11:50:39;3.57;;;1.50;;
7013;SDS011;3547;50.774;12.918;2024-01-16T11:53:05;2.17;;;1.60;;
7013;SDS011;3547;50.774;12.918;2024-01-16T11:55:33;2.87;;;1.33;;
7013;SDS011;3547;50.774;12.918;2024-01-16T12:01:19;5.17;;;1.80;;
7013;SDS011;3547;50.774;12.918;2024-01-16T12:04:00;5.40;;;1.60;;
7013;SDS011;3547;50.774;12.918;2024-01-16T12:06:30;5.50;;;1.50;;
7013;SDS011;3547;50.774;12.918;2024-01-16T12:09:16;4.70;;;2.10;;
7013;SDS011;3547;50.774;12.918;2024-01-16T12:11:56;3.57;;;1.70;;
7013;SDS011;3547;50.774;12.918;2024-01-16T12:14:27;2.87;;;1.70;;
7013;SDS011;3547;50.774;12.918;2024-01-16T12:17:08;1.47;;;1.20;;
7013;SDS011;3547;50.774;12.918;2024-01-16T12:19:37;4.33;;;1.83;;
7013;SDS011;3547;50.774;12.918;2024-01-16T12:22:08;2.73;;;1.77;;
7013;SDS011;3547;50.774;12.918;2024-01-16T12:24:35;2.47;;;1.20;;
7013;SDS011;3547;50.774;12.918;2024-01-16T12:27:02;2.63;;;1.60;;
7013;SDS011;3547;50.774;12.918;2024-01-16T12:29:30;2.60;;;1.20;;
7013;SDS011;3547;50.774;12.918;2024-01-16T12:32:07;1.53;;;1.10;;
7013;SDS011;3547;50.774;12.918;2024-01-16T12:34:49;4.70;;;1.47;;
7013;SDS011;3547;50.774;12.918;2024-01-16T12:37:15;1.27;;;1.10;;
7013;SDS011;3547;50.774;12.918;2024-01-16T12:39:42;1.47;;;1.30;;
7013;SDS011;3547;50.774;12.918;2024-01-16T12:42:09;1.90;;;1.20;;
7013;SDS011;3547;50.774;12.918;2024-01-16T12:44:37;2.27;;;2.07;;
7013;SDS011;3547;50.774;12.918;2024-01-16T12:47:03;1.50;;;1.07;;
7013;SDS011;3547;50.774;12.918;2024-01-16T12:49:30;3.17;;;0.90;;
7013;SDS011;3547;50.774;12.918;2024-01-16T12:54:41;2.30;;;1.37;;
7013;SDS011;3547;50.774;12.918;2024-01-16T12:57:08;1.37;;;1.27;;
7013;SDS011;3547;50.774;12.918;2024-01-16T12:59:39;3.93;;;1.10;;
7013;SDS011;3547;50.774;12.918;2024-01-16T13:02:05;1.70;;;1.20;;
7013;SDS011;3547;50.774;12.918;2024-01-16T13:04:32;2.23;;;1.60;;
7013;SDS011;3547;50.774;12.918;2024-01-16T13:07:04;2.77;;;1.30;;
7013;SDS011;3547;50.774;12.918;2024-01-16T13:09:31;5.57;;;1.63;;
7013;SDS011;3547;50.774;12.918;2024-01-16T13:11:57;5.40;;;2.43;;
7013;SDS011;3547;50.774;12.918;2024-01-16T13:14:26;8.30;;;3.23;;
7013;SDS011;3547;50.774;12.918;2024-01-16T13:16:52;3.23;;;2.13;;
7013;SDS011;3547;50.774;12.918;2024-01-16T13:19:22;4.67;;;1.67;;
7013;SDS011;3547;50.774;12.918;2024-01-16T13:21:48;2.23;;;1.20;;
7013;SDS011;3547;50.774;12.918;2024-01-16T13:24:15;1.57;;;1.47;;
7013;SDS011;3547;50.774;12.918;2024-01-16T13:26:43;4.13;;;2.40;;
7013;SDS011;3547;50.774;12.918;2024-01-16T13:29:09;4.90;;;1.93;;
7013;SDS011;3547;50.774;12.918;2024-01-16T13:31:35;1.70;;;1.60;;
7013;SDS011;3547;50.774;12.918;2024-01-16T13:34:02;1.67;;;1.53;;
7013;SDS011;3547;50.774;12.918;2024-01-16T13:36:28;2.63;;;1.87;;
7013;SDS011;3547;50.774;12.918;2024-01-16T13:38:55;4.13;;;2.30;;
7013;SDS011;3547;50.774;12.918;2024-01-16T13:41:21;3.20;;;2.10;;
7013;SDS011;3547;50.774;12.918;2024-01-16T13:43:48;3.37;;;2.03;;
7013;SDS011;3547;50.774;12.918;2024-01-16T13:46:17;2.87;;;2.13;;
7013;SDS011;3547;50.774;12.918;2024-01-16T13:48:43;1.50;;;1.40;;
7013;SDS011;3547;50.774;12.918;2024-01-16T13:51:10;4.57;;;1.70;;
7013;SDS011;3547;50.774;12.918;2024-01-16T13:53:37;2.17;;;1.90;;
7013;SDS011;3547;50.774;12.918;2024-01-16T13:56:03;4.90;;;1.97;;
7013;SDS011;3547;50.774;12.918;2024-01-16T13:58:29;3.63;;;1.93;;
7013;SDS011;3547;50.774;12.918;2024-01-16T14:00:57;3.17;;;1.60;;
7013;SDS011;3547;50.774;12.918;2024-01-16T14:03:23;2.90;;;1.83;;
7013;SDS011;3547;50.774;12.918;2024-01-16T14:05:49;2.77;;;1.93;;
7013;SDS011;3547;50.774;12.918;2024-01-16T14:08:16;3.07;;;2.10;;
7013;SDS011;3547;50.774;12.918;2024-01-16T14:10:42;4.70;;;2.10;;
7013;SDS011;3547;50.774;12.918;2024-01-16T14:13:08;2.97;;;2.00;;
7013;SDS011;3547;50.774;12.918;2024-01-16T14:15:37;2.87;;;1.70;;
7013;SDS011;3547;50.774;12.918;2024-01-16T14:18:04;3.07;;;2.10;;
7013;SDS011;3547;50.774;12.918;2024-01-16T14:20:31;2.60;;;1.83;;
7013;SDS011;3547;50.774;12.918;2024-01-16T14:22:57;2.20;;;1.90;;
7013;SDS011;3547;50.774;12.918;2024-01-16T14:25:23;3.60;;;2.00;;
7013;SDS011;3547;50.774;12.918;2024-01-16T14:27:57;3.60;;;1.80;;
7013;SDS011;3547;50.774;12.918;2024-01-16T14:30:24;5.50;;;2.87;;
7013;SDS011;3547;50.774;12.918;2024-01-16T14:32:52;2.33;;;1.87;;
7013;SDS011;3547;50.774;12.918;2024-01-16T14:35:22;3.43;;;2.20;;
7013;SDS011;3547;50.774;12.918;2024-01-16T14:37:49;4.07;;;2.37;;
7013;SDS011;3547;50.774;12.918;2024-01-16T14:40:16;3.47;;;2.03;;
7013;SDS011;3547;50.774;12.918;2024-01-16T14:42:49;3.37;;;2.50;;
7013;SDS011;3547;50.774;12.918;2024-01-16T14:45:25;5.03;;;2.33;;
7013;SDS011;3547;50.774;12.918;2024-01-16T14:47:52;4.10;;;2.20;;
7013;SDS011;3547;50.774;12.918;2024-01-16T14:50:22;4.83;;;2.33;;
7013;SDS011;3547;50.774;12.918;2024-01-16T14:52:49;3.67;;;2.10;;
7013;SDS011;3547;50.774;12.918;2024-01-16T14:55:17;2.90;;;2.10;;
7013;SDS011;3547;50.774;12.918;2024-01-16T14:57:45;5.40;;;2.40;;
7013;SDS011;3547;50.774;12.918;2024-01-16T15:00:17;3.30;;;1.97;;
7013;SDS011;3547;50.774;12.918;2024-01-16T15:02:50;4.90;;;2.00;;
7013;SDS011;3547;50.774;12.918;2024-01-16T15:05:16;5.27;;;2.47;;
7013;SDS011;3547;50.774;12.918;2024-01-16T15:07:44;2.70;;;2.03;;
7013;SDS011;3547;50.774;12.918;2024-01-16T15:10:11;2.50;;;2.30;;
7013;SDS011;3547;50.774;12.918;2024-01-16T15:12:38;3.57;;;2.47;;
7013;SDS011;3547;50.774;12.918;2024-01-16T15:15:06;5.90;;;3.00;;
7013;SDS011;3547;50.774;12.918;2024-01-16T15:17:37;5.43;;;2.33;;
7013;SDS011;3547;50.774;12.918;2024-01-16T15:20:04;3.63;;;2.40;;
7013;SDS011;3547;50.774;12.918;2024-01-16T15:22:45;4.17;;;2.33;;
7013;SDS011;3547;50.774;12.918;2024-01-16T15:25:14;2.03;;;1.73;;
7013;SDS011;3547;50.774;12.918;2024-01-16T15:27:42;2.03;;;1.60;;
7013;SDS011;3547;50.774;12.918;2024-01-16T15:30:09;6.73;;;3.63;;
7013;SDS011;3547;50.774;12.918;2024-01-16T15:32:36;2.20;;;1.87;;
7013;SDS011;3547;50.774;12.918;2024-01-16T15:35:03;4.20;;;2.53;;
7013;SDS011;3547;50.774;12.918;2024-01-16T15:37:33;2.70;;;2.40;;
7013;SDS011;3547;50.774;12.918;2024-01-16T15:39:59;2.20;;;1.77;;
7013;SDS011;3547;50.774;12.918;2024-01-16T15:42:26;2.60;;;2.17;;
7013;SDS011;3547;50.774;12.918;2024-01-16T15:44:52;2.70;;;2.13;;